sensor_id;sensor_type;location;lat;lon;timestamp;pressure;altitude;pressure_sealevel;temperature;humidity
72210;BME280;60113;48.762;12.302;2023-10-08T00:02:05;97899.13;;;15.75;56.77
72210;BME280;60113;48.762;12.302;2023-10-08T00:04:33;97893.09;;;15.73;57.17
72210;BME280;60113;48.762;12.302;2023-10-08T00:07:03;97886.41;;;15.69;57.12
72210;BME280;60113;48.762;12.302;2023-10-08T00:09:32;97879.28;;;15.69;56.87
72210;BME280;60113;48.762;12.302;2023-10-08T00:12:03;97875.66;;;15.70;56.87
72210;BME280;60113;48.762;12.302;2023-10-08T00:14:30;97874.81;;;15.70;57.13
72210;BME280;60113;48.762;12.302;2023-10-08T00:16:55;97876.50;;;15.71;56.96
72210;BME280;60113;48.762;12.302;2023-10-08T00:19:20;97869.38;;;15.71;56.88
72210;BME280;60113;48.762;12.302;2023-10-08T00:21:46;97869.38;;;15.71;57.00
72210;BME280;60113;48.762;12.302;2023-10-08T00:24:13;97858.78;;;15.71;57.02
72210;BME280;60113;48.762;12.302;2023-10-08T00:26:38;97845.28;;;15.74;57.48
72210;BME280;60113;48.762;12.302;2023-10-08T00:29:08;97855.59;;;15.78;57.22
72210;BME280;60113;48.762;12.302;2023-10-08T00:31:50;97851.97;;;15.79;57.05
72210;BME280;60113;48.762;12.302;2023-10-08T00:34:17;97848.09;;;15.83;57.40
72210;BME280;60113;48.762;12.302;2023-10-08T00:36:46;97847.97;;;15.84;57.03
72210;BME280;60113;48.762;12.302;2023-10-08T00:39:15;97841.69;;;15.85;57.13
72210;BME280;60113;48.762;12.302;2023-10-08T00:41:48;97842.41;;;15.87;57.06
72210;BME280;60113;48.762;12.302;2023-10-08T00:44:24;97845.03;;;15.87;57.36
72210;BME280;60113;48.762;12.302;2023-10-08T00:46:56;97838.03;;;15.86;57.39
72210;BME280;60113;48.762;12.302;2023-10-08T00:49:24;97838.19;;;15.85;57.19
72210;BME280;60113;48.762;12.302;2023-10-08T00:52:12;97826.78;;;15.84;57.68
72210;BME280;60113;48.762;12.302;2023-10-08T00:54:56;97832.19;;;15.83;57.02
72210;BME280;60113;48.762;12.302;2023-10-08T00:57:57;97829.69;;;15.81;57.48
72210;BME280;60113;48.762;12.302;2023-10-08T01:00:43;97821.03;;;15.79;57.05
72210;BME280;60113;48.762;12.302;2023-10-08T01:03:32;97818.50;;;15.78;57.25
72210;BME280;60113;48.762;12.302;2023-10-08T01:06:21;97822.00;;;15.78;57.08
72210;BME280;60113;48.762;12.302;2023-10-08T01:09:06;97817.41;;;15.80;57.06
72210;BME280;60113;48.762;12.302;2023-10-08T01:12:10;97821.59;;;15.83;57.27
72210;BME280;60113;48.762;12.302;2023-10-08T01:15:11;97823.41;;;15.82;56.72
72210;BME280;60113;48.762;12.302;2023-10-08T01:18:09;97819.91;;;15.82;57.00
72210;BME280;60113;48.762;12.302;2023-10-08T01:21:00;97813.09;;;15.79;56.76
72210;BME280;60113;48.762;12.302;2023-10-08T01:23:51;97815.03;;;15.77;56.85
72210;BME280;60113;48.762;12.302;2023-10-08T01:26:39;97819.38;;;15.78;57.11
72210;BME280;60113;48.762;12.302;2023-10-08T01:29:26;97811.56;;;15.77;56.71
72210;BME280;60113;48.762;12.302;2023-10-08T01:32:14;97814.47;;;15.73;57.04
72210;BME280;60113;48.762;12.302;2023-10-08T01:35:01;97814.75;;;15.70;56.65
72210;BME280;60113;48.762;12.302;2023-10-08T01:37:50;97812.09;;;15.70;56.93
72210;BME280;60113;48.762;12.302;2023-10-08T01:40:36;97821.84;;;15.70;56.80
72210;BME280;60113;48.762;12.302;2023-10-08T01:43:22;97815.84;;;15.68;56.80
72210;BME280;60113;48.762;12.302;2023-10-08T01:46:07;97822.25;;;15.65;57.12
72210;BME280;60113;48.762;12.302;2023-10-08T01:48:57;97829.34;;;15.65;57.01
72210;BME280;60113;48.762;12.302;2023-10-08T01:51:49;97835.50;;;15.65;56.75
72210;BME280;60113;48.762;12.302;2023-10-08T01:54:35;97840.06;;;15.63;56.63
72210;BME280;60113;48.762;12.302;2023-10-08T01:57:21;97843.97;;;15.59;56.81
72210;BME280;60113;48.762;12.302;2023-10-08T02:00:07;97843.53;;;15.54;56.99
72210;BME280;60113;48.762;12.302;2023-10-08T02:02:54;97852.72;;;15.49;57.17
72210;BME280;60113;48.762;12.302;2023-10-08T02:05:40;97846.16;;;15.44;57.23
72210;BME280;60113;48.762;12.302;2023-10-08T02:08:27;97841.25;;;15.39;56.82
72210;BME280;60113;48.762;12.302;2023-10-08T02:11:13;97847.78;;;15.35;57.35
72210;BME280;60113;48.762;12.302;2023-10-08T02:14:01;97840.94;;;15.32;57.21
72210;BME280;60113;48.762;12.302;2023-10-08T02:16:51;97837.34;;;15.33;57.54
72210;BME280;60113;48.762;12.302;2023-10-08T02:19:41;97829.97;;;15.37;58.54
72210;BME280;60113;48.762;12.302;2023-10-08T02:22:27;97826.19;;;15.40;57.14
72210;BME280;60113;48.762;12.302;2023-10-08T02:25:12;97828.19;;;15.47;56.88
72210;BME280;60113;48.762;12.302;2023-10-08T02:27:59;97834.06;;;15.51;56.81
72210;BME280;60113;48.762;12.302;2023-10-08T02:30:44;97821.53;;;15.53;56.76
72210;BME280;60113;48.762;12.302;2023-10-08T02:33:30;97819.56;;;15.55;56.52
72210;BME280;60113;48.762;12.302;2023-10-08T02:36:16;97827.22;;;15.58;56.46
72210;BME280;60113;48.762;12.302;2023-10-08T02:39:03;97826.97;;;15.61;56.41
72210;BME280;60113;48.762;12.302;2023-10-08T02:41:52;97834.09;;;15.61;56.26
72210;BME280;60113;48.762;12.302;2023-10-08T02:44:40;97831.03;;;15.66;56.16
72210;BME280;60113;48.762;12.302;2023-10-08T02:47:29;97838.84;;;15.67;56.28
72210;BME280;60113;48.762;12.302;2023-10-08T02:50:15;97828.94;;;15.69;56.03
72210;BME280;60113;48.762;12.302;2023-10-08T02:53:03;97823.66;;;15.69;56.06
72210;BME280;60113;48.762;12.302;2023-10-08T02:55:55;97829.06;;;15.68;56.07
72210;BME280;60113;48.762;12.302;2023-10-08T02:58:42;97826.69;;;15.65;56.21
72210;BME280;60113;48.762;12.302;2023-10-08T03:01:33;97832.97;;;15.63;55.98
72210;BME280;60113;48.762;12.302;2023-10-08T03:04:19;97846.22;;;15.63;55.99
72210;BME280;60113;48.762;12.302;2023-10-08T03:07:06;97849.00;;;15.62;56.01
72210;BME280;60113;48.762;12.302;2023-10-08T03:09:57;97838.69;;;15.59;56.13
72210;BME280;60113;48.762;12.302;2023-10-08T03:12:50;97838.09;;;15.55;56.40
72210;BME280;60113;48.762;12.302;2023-10-08T03:15:36;97829.59;;;15.52;56.39
72210;BME280;60113;48.762;12.302;2023-10-08T03:18:27;97834.06;;;15.51;56.45
72210;BME280;60113;48.762;12.302;2023-10-08T03:21:21;97834.59;;;15.45;56.72
72210;BME280;60113;48.762;12.302;2023-10-08T03:24:07;97832.22;;;15.42;56.42
72210;BME280;60113;48.762;12.302;2023-10-08T03:26:58;97830.53;;;15.41;56.38
72210;BME280;60113;48.762;12.302;2023-10-08T03:30:00;97832.47;;;15.38;56.32
72210;BME280;60113;48.762;12.302;2023-10-08T03:32:46;97831.63;;;15.38;56.43
72210;BME280;60113;48.762;12.302;2023-10-08T03:35:40;97827.44;;;15.35;56.16
72210;BME280;60113;48.762;12.302;2023-10-08T03:38:29;97828.56;;;15.33;56.44
72210;BME280;60113;48.762;12.302;2023-10-08T03:41:29;97826.31;;;15.28;56.52
72210;BME280;60113;48.762;12.302;2023-10-08T03:44:15;97832.13;;;15.22;56.72
72210;BME280;60113;48.762;12.302;2023-10-08T03:47:02;97834.19;;;15.18;56.45
72210;BME280;60113;48.762;12.302;2023-10-08T03:49:55;97831.94;;;15.13;56.71
72210;BME280;60113;48.762;12.302;2023-10-08T03:52:41;97833.31;;;15.08;56.67
72210;BME280;60113;48.762;12.302;2023-10-08T03:55:28;97833.84;;;15.02;56.49
72210;BME280;60113;48.762;12.302;2023-10-08T03:58:20;97841.44;;;14.95;56.48
72210;BME280;60113;48.762;12.302;2023-10-08T04:01:16;97856.03;;;14.89;56.83
72210;BME280;60113;48.762;12.302;2023-10-08T04:04:05;97853.53;;;14.87;56.67
72210;BME280;60113;48.762;12.302;2023-10-08T04:06:51;97864.25;;;14.86;57.08
72210;BME280;60113;48.762;12.302;2023-10-08T04:09:40;97865.34;;;14.83;56.94
72210;BME280;60113;48.762;12.302;2023-10-08T04:12:27;97864.00;;;14.78;57.22
72210;BME280;60113;48.762;12.302;2023-10-08T04:15:13;97859.34;;;14.70;57.06
72210;BME280;60113;48.762;12.302;2023-10-08T04:18:01;97863.63;;;14.61;57.25
72210;BME280;60113;48.762;12.302;2023-10-08T04:20:48;97862.72;;;14.50;57.18
72210;BME280;60113;48.762;12.302;2023-10-08T04:23:48;97861.81;;;14.40;57.63
72210;BME280;60113;48.762;12.302;2023-10-08T04:26:36;97860.59;;;14.33;57.56
72210;BME280;60113;48.762;12.302;2023-10-08T04:29:25;97867.38;;;14.25;57.83
72210;BME280;60113;48.762;12.302;2023-10-08T04:32:11;97867.00;;;14.19;57.70
72210;BME280;60113;48.762;12.302;2023-10-08T04:34:57;97864.03;;;14.12;58.03
72210;BME280;60113;48.762;12.302;2023-10-08T04:37:44;97868.00;;;14.06;58.10
72210;BME280;60113;48.762;12.302;2023-10-08T04:40:30;97885.06;;;14.02;58.21
72210;BME280;60113;48.762;12.302;2023-10-08T04:43:26;97887.28;;;13.97;58.46
72210;BME280;60113;48.762;12.302;2023-10-08T04:46:23;97881.63;;;13.90;58.80
72210;BME280;60113;48.762;12.302;2023-10-08T04:49:23;97881.16;;;13.85;58.72
72210;BME280;60113;48.762;12.302;2023-10-08T04:52:13;97883.22;;;13.81;58.74
72210;BME280;60113;48.762;12.302;2023-10-08T04:55:01;97876.47;;;13.77;59.38
72210;BME280;60113;48.762;12.302;2023-10-08T04:57:58;97884.38;;;13.77;59.22
72210;BME280;60113;48.762;12.302;2023-10-08T05:00:45;97884.63;;;13.74;59.14
72210;BME280;60113;48.762;12.302;2023-10-08T05:03:39;97877.81;;;13.71;59.45
72210;BME280;60113;48.762;12.302;2023-10-08T05:06:39;97871.44;;;13.74;59.67
72210;BME280;60113;48.762;12.302;2023-10-08T05:09:35;97874.06;;;13.74;59.16
72210;BME280;60113;48.762;12.302;2023-10-08T05:12:34;97880.94;;;13.77;59.50
72210;BME280;60113;48.762;12.302;2023-10-08T05:15:19;97869.16;;;13.81;59.34
72210;BME280;60113;48.762;12.302;2023-10-08T05:18:18;97878.63;;;13.83;59.17
72210;BME280;60113;48.762;12.302;2023-10-08T05:21:04;97880.31;;;13.84;59.30
72210;BME280;60113;48.762;12.302;2023-10-08T05:24:09;97887.88;;;13.89;59.48
72210;BME280;60113;48.762;12.302;2023-10-08T05:26:58;97889.31;;;13.93;59.54
72210;BME280;60113;48.762;12.302;2023-10-08T05:30:07;97887.50;;;13.94;59.61
72210;BME280;60113;48.762;12.302;2023-10-08T05:33:01;97883.06;;;13.94;59.21
72210;BME280;60113;48.762;12.302;2023-10-08T05:35:49;97882.81;;;13.97;59.65
72210;BME280;60113;48.762;12.302;2023-10-08T05:38:35;97872.97;;;13.99;59.33
72210;BME280;60113;48.762;12.302;2023-10-08T05:41:21;97885.94;;;14.03;59.54
72210;BME280;60113;48.762;12.302;2023-10-08T05:44:36;97885.69;;;14.06;59.31
72210;BME280;60113;48.762;12.302;2023-10-08T05:47:25;97898.78;;;14.07;60.08
72210;BME280;60113;48.762;12.302;2023-10-08T05:50:19;97897.91;;;14.07;59.75
72210;BME280;60113;48.762;12.302;2023-10-08T05:53:05;97900.56;;;14.07;59.65
72210;BME280;60113;48.762;12.302;2023-10-08T05:56:05;97902.97;;;14.10;59.89
72210;BME280;60113;48.762;12.302;2023-10-08T05:59:02;97898.53;;;14.10;59.82
72210;BME280;60113;48.762;12.302;2023-10-08T06:02:03;97893.00;;;14.13;60.13
72210;BME280;60113;48.762;12.302;2023-10-08T06:04:52;97902.47;;;14.16;60.02
72210;BME280;60113;48.762;12.302;2023-10-08T06:07:56;97898.59;;;14.20;60.28
72210;BME280;60113;48.762;12.302;2023-10-08T06:10:56;97899.19;;;14.24;60.37
72210;BME280;60113;48.762;12.302;2023-10-08T06:13:46;97899.56;;;14.31;60.24
72210;BME280;60113;48.762;12.302;2023-10-08T06:16:41;97891.25;;;14.35;60.32
72210;BME280;60113;48.762;12.302;2023-10-08T06:19:27;97895.44;;;14.38;60.33
72210;BME280;60113;48.762;12.302;2023-10-08T06:22:13;97886.53;;;14.39;60.42
72210;BME280;60113;48.762;12.302;2023-10-08T06:24:58;97891.56;;;14.42;60.49
72210;BME280;60113;48.762;12.302;2023-10-08T06:28:02;97895.66;;;14.46;60.52
72210;BME280;60113;48.762;12.302;2023-10-08T06:30:49;97882.75;;;14.53;60.71
72210;BME280;60113;48.762;12.302;2023-10-08T06:33:39;97884.78;;;14.61;60.91
72210;BME280;60113;48.762;12.302;2023-10-08T06:36:26;97891.38;;;14.67;60.66
72210;BME280;60113;48.762;12.302;2023-10-08T06:39:13;97892.66;;;14.72;60.80
72210;BME280;60113;48.762;12.302;2023-10-08T06:42:04;97895.88;;;14.76;60.82
72210;BME280;60113;48.762;12.302;2023-10-08T06:44:50;97884.25;;;14.79;61.29
72210;BME280;60113;48.762;12.302;2023-10-08T06:47:38;97883.88;;;14.83;60.83
72210;BME280;60113;48.762;12.302;2023-10-08T06:50:23;97888.78;;;14.88;60.64
72210;BME280;60113;48.762;12.302;2023-10-08T06:53:09;97885.47;;;14.96;61.31
72210;BME280;60113;48.762;12.302;2023-10-08T06:55:55;97888.44;;;15.03;60.99
72210;BME280;60113;48.762;12.302;2023-10-08T06:58:42;97888.50;;;15.12;61.06
72210;BME280;60113;48.762;12.302;2023-10-08T07:01:33;97888.56;;;15.22;61.33
72210;BME280;60113;48.762;12.302;2023-10-08T07:04:24;97895.84;;;15.30;61.21
72210;BME280;60113;48.762;12.302;2023-10-08T07:07:11;97885.56;;;15.37;60.88
72210;BME280;60113;48.762;12.302;2023-10-08T07:10:04;97884.31;;;15.41;61.05
72210;BME280;60113;48.762;12.302;2023-10-08T07:12:50;97899.81;;;15.46;61.38
72210;BME280;60113;48.762;12.302;2023-10-08T07:15:38;97896.91;;;15.49;61.30
72210;BME280;60113;48.762;12.302;2023-10-08T07:18:26;97895.69;;;15.53;60.99
72210;BME280;60113;48.762;12.302;2023-10-08T07:21:11;97888.41;;;15.55;61.55
72210;BME280;60113;48.762;12.302;2023-10-08T07:23:58;97892.63;;;15.58;61.23
72210;BME280;60113;48.762;12.302;2023-10-08T07:26:44;97902.97;;;15.61;61.36
72210;BME280;60113;48.762;12.302;2023-10-08T07:29:33;97908.13;;;15.62;61.25
72210;BME280;60113;48.762;12.302;2023-10-08T07:32:18;97909.78;;;15.63;61.50
72210;BME280;60113;48.762;12.302;2023-10-08T07:35:05;97919.41;;;15.65;61.08
72210;BME280;60113;48.762;12.302;2023-10-08T07:38:05;97918.47;;;15.66;61.65
72210;BME280;60113;48.762;12.302;2023-10-08T07:40:55;97913.84;;;15.68;61.08
72210;BME280;60113;48.762;12.302;2023-10-08T07:43:41;97913.84;;;15.68;61.64
72210;BME280;60113;48.762;12.302;2023-10-08T07:46:27;97920.97;;;15.67;61.91
72210;BME280;60113;48.762;12.302;2023-10-08T07:49:13;97919.13;;;15.68;61.67
72210;BME280;60113;48.762;12.302;2023-10-08T07:52:00;97920.25;;;15.65;61.69
72210;BME280;60113;48.762;12.302;2023-10-08T07:54:45;97930.84;;;15.65;61.42
72210;BME280;60113;48.762;12.302;2023-10-08T07:57:31;97937.94;;;15.65;61.54
72210;BME280;60113;48.762;12.302;2023-10-08T08:00:17;97945.06;;;15.64;61.27
72210;BME280;60113;48.762;12.302;2023-10-08T08:03:04;97945.91;;;15.65;61.53
72210;BME280;60113;48.762;12.302;2023-10-08T08:05:50;97951.50;;;15.71;61.53
72210;BME280;60113;48.762;12.302;2023-10-08T08:08:38;97954.88;;;15.73;61.32
72210;BME280;60113;48.762;12.302;2023-10-08T08:11:24;97938.47;;;15.80;61.26
72210;BME280;60113;48.762;12.302;2023-10-08T08:14:13;97936.66;;;15.90;61.08
72210;BME280;60113;48.762;12.302;2023-10-08T08:17:02;97934.91;;;16.00;61.46
72210;BME280;60113;48.762;12.302;2023-10-08T08:19:58;97925.16;;;16.11;61.18
72210;BME280;60113;48.762;12.302;2023-10-08T08:22:44;97925.47;;;16.18;61.55
72210;BME280;60113;48.762;12.302;2023-10-08T08:25:39;97936.78;;;16.20;61.69
72210;BME280;60113;48.762;12.302;2023-10-08T08:28:32;97940.25;;;16.20;61.76
72210;BME280;60113;48.762;12.302;2023-10-08T08:31:18;97947.53;;;16.18;61.55
72210;BME280;60113;48.762;12.302;2023-10-08T08:34:06;97952.13;;;16.16;61.75
72210;BME280;60113;48.762;12.302;2023-10-08T08:36:59;97955.91;;;16.14;61.82
72210;BME280;60113;48.762;12.302;2023-10-08T08:39:46;97956.97;;;16.11;61.56
72210;BME280;60113;48.762;12.302;2023-10-08T08:42:33;97985.44;;;16.09;62.10
72210;BME280;60113;48.762;12.302;2023-10-08T08:45:22;97991.84;;;16.06;62.10
72210;BME280;60113;48.762;12.302;2023-10-08T08:48:08;97999.25;;;16.03;62.41
72210;BME280;60113;48.762;12.302;2023-10-08T08:50:54;98003.81;;;16.00;62.38
72210;BME280;60113;48.762;12.302;2023-10-08T08:53:40;98002.38;;;15.96;62.15
72210;BME280;60113;48.762;12.302;2023-10-08T08:56:28;98025.53;;;15.94;62.87
72210;BME280;60113;48.762;12.302;2023-10-08T08:59:16;98017.56;;;15.94;62.00
72210;BME280;60113;48.762;12.302;2023-10-08T09:02:02;98010.59;;;15.93;62.18
72210;BME280;60113;48.762;12.302;2023-10-08T09:04:53;98009.63;;;15.94;62.37
72210;BME280;60113;48.762;12.302;2023-10-08T09:08:02;98013.97;;;15.95;64.39
72210;BME280;60113;48.762;12.302;2023-10-08T09:10:51;98019.16;;;15.97;62.59
72210;BME280;60113;48.762;12.302;2023-10-08T09:13:37;98023.78;;;16.05;62.66
72210;BME280;60113;48.762;12.302;2023-10-08T09:16:23;98021.31;;;16.13;62.56
72210;BME280;60113;48.762;12.302;2023-10-08T09:19:09;98020.50;;;16.22;62.65
72210;BME280;60113;48.762;12.302;2023-10-08T09:22:01;98034.63;;;16.33;63.11
72210;BME280;60113;48.762;12.302;2023-10-08T09:24:49;98040.38;;;16.38;63.22
72210;BME280;60113;48.762;12.302;2023-10-08T09:27:36;98030.22;;;16.43;62.67
72210;BME280;60113;48.762;12.302;2023-10-08T09:30:23;98031.75;;;16.46;62.92
72210;BME280;60113;48.762;12.302;2023-10-08T09:33:12;98029.94;;;16.46;63.09
72210;BME280;60113;48.762;12.302;2023-10-08T09:36:01;98033.28;;;16.48;63.10
72210;BME280;60113;48.762;12.302;2023-10-08T09:38:48;98023.81;;;16.46;63.20
72210;BME280;60113;48.762;12.302;2023-10-08T09:41:34;98019.34;;;16.46;62.96
72210;BME280;60113;48.762;12.302;2023-10-08T09:44:23;98008.72;;;16.46;63.04
72210;BME280;60113;48.762;12.302;2023-10-08T09:47:12;97996.44;;;16.45;62.90
72210;BME280;60113;48.762;12.302;2023-10-08T09:50:04;97996.00;;;16.40;62.83
72210;BME280;60113;48.762;12.302;2023-10-08T09:53:12;97993.63;;;16.37;64.18
72210;BME280;60113;48.762;12.302;2023-10-08T09:56:14;97988.03;;;16.30;63.52
72210;BME280;60113;48.762;12.302;2023-10-08T09:59:01;97981.19;;;16.28;63.47
72210;BME280;60113;48.762;12.302;2023-10-08T10:01:47;97961.91;;;16.25;63.41
72210;BME280;60113;48.762;12.302;2023-10-08T10:04:33;97958.81;;;16.20;63.25
72210;BME280;60113;48.762;12.302;2023-10-08T10:07:20;97957.28;;;16.18;63.32
72210;BME280;60113;48.762;12.302;2023-10-08T10:10:28;97962.84;;;16.15;64.58
72210;BME280;60113;48.762;12.302;2023-10-08T10:13:16;97965.50;;;16.15;63.29
72210;BME280;60113;48.762;12.302;2023-10-08T10:16:04;97950.72;;;16.12;63.27
72210;BME280;60113;48.762;12.302;2023-10-08T10:18:56;97954.19;;;16.12;63.73
72210;BME280;60113;48.762;12.302;2023-10-08T10:21:42;97967.44;;;16.12;63.49
72210;BME280;60113;48.762;12.302;2023-10-08T10:24:36;97988.53;;;16.14;63.96
72210;BME280;60113;48.762;12.302;2023-10-08T10:27:22;97985.06;;;16.14;63.37
72210;BME280;60113;48.762;12.302;2023-10-08T10:30:08;97993.00;;;16.14;63.39
72210;BME280;60113;48.762;12.302;2023-10-08T10:32:54;98008.91;;;16.14;64.00
72210;BME280;60113;48.762;12.302;2023-10-08T10:35:40;98020.34;;;16.14;63.48
72210;BME280;60113;48.762;12.302;2023-10-08T10:38:29;98019.50;;;16.14;64.21
72210;BME280;60113;48.762;12.302;2023-10-08T10:41:15;98026.75;;;16.11;64.99
72210;BME280;60113;48.762;12.302;2023-10-08T10:44:02;98031.19;;;16.11;64.54
72210;BME280;60113;48.762;12.302;2023-10-08T10:46:53;98032.31;;;16.08;64.75
72210;BME280;60113;48.762;12.302;2023-10-08T10:50:05;98036.63;;;16.09;64.93
72210;BME280;60113;48.762;12.302;2023-10-08T10:52:51;98045.31;;;16.11;64.71
72210;BME280;60113;48.762;12.302;2023-10-08T10:55:37;98042.97;;;16.18;64.84
72210;BME280;60113;48.762;12.302;2023-10-08T10:58:24;98035.75;;;16.30;65.13
72210;BME280;60113;48.762;12.302;2023-10-08T11:01:10;98035.66;;;16.42;65.32
72210;BME280;60113;48.762;12.302;2023-10-08T11:04:08;98027.44;;;16.55;65.76
72210;BME280;60113;48.762;12.302;2023-10-08T11:07:01;98030.41;;;16.71;64.69
72210;BME280;60113;48.762;12.302;2023-10-08T11:09:47;98025.41;;;16.88;64.74
72210;BME280;60113;48.762;12.302;2023-10-08T11:12:34;98035.22;;;16.97;64.97
72210;BME280;60113;48.762;12.302;2023-10-08T11:15:32;98025.25;;;16.99;65.38
72210;BME280;60113;48.762;12.302;2023-10-08T11:18:26;98023.03;;;17.05;64.90
72210;BME280;60113;48.762;12.302;2023-10-08T11:21:15;98021.38;;;17.04;64.89
72210;BME280;60113;48.762;12.302;2023-10-08T11:24:01;98018.72;;;17.04;65.15
72210;BME280;60113;48.762;12.302;2023-10-08T11:26:54;98009.53;;;17.08;64.83
72210;BME280;60113;48.762;12.302;2023-10-08T11:29:48;98016.50;;;17.19;64.87
72210;BME280;60113;48.762;12.302;2023-10-08T11:32:42;98020.13;;;17.28;64.53
72210;BME280;60113;48.762;12.302;2023-10-08T11:35:33;98010.47;;;17.36;64.86
72210;BME280;60113;48.762;12.302;2023-10-08T11:38:19;98007.25;;;17.53;64.42
72210;BME280;60113;48.762;12.302;2023-10-08T11:41:11;98003.72;;;17.72;64.60
72210;BME280;60113;48.762;12.302;2023-10-08T11:44:06;97995.81;;;17.90;64.29
72210;BME280;60113;48.762;12.302;2023-10-08T11:46:51;98007.44;;;17.89;64.34
72210;BME280;60113;48.762;12.302;2023-10-08T11:49:38;97996.53;;;17.82;64.05
72210;BME280;60113;48.762;12.302;2023-10-08T11:52:32;98007.03;;;17.74;64.22
72210;BME280;60113;48.762;12.302;2023-10-08T11:55:17;98014.22;;;17.64;64.50
72210;BME280;60113;48.762;12.302;2023-10-08T11:58:06;98009.31;;;17.59;63.92
72210;BME280;60113;48.762;12.302;2023-10-08T12:01:03;98003.44;;;17.55;64.08
72210;BME280;60113;48.762;12.302;2023-10-08T12:03:49;98010.75;;;17.53;63.81
72210;BME280;60113;48.762;12.302;2023-10-08T12:06:35;98012.84;;;17.49;64.00
72210;BME280;60113;48.762;12.302;2023-10-08T12:09:22;98006.81;;;17.47;64.13
72210;BME280;60113;48.762;12.302;2023-10-08T12:12:12;98029.47;;;17.52;64.17
72210;BME280;60113;48.762;12.302;2023-10-08T12:14:59;98021.38;;;17.53;64.10
72210;BME280;60113;48.762;12.302;2023-10-08T12:17:49;98022.75;;;17.57;64.24
72210;BME280;60113;48.762;12.302;2023-10-08T12:20:53;98027.78;;;17.70;64.29
72210;BME280;60113;48.762;12.302;2023-10-08T12:23:39;98022.03;;;17.75;64.50
72210;BME280;60113;48.762;12.302;2023-10-08T12:26:26;98016.38;;;17.88;64.04
72210;BME280;60113;48.762;12.302;2023-10-08T12:29:12;98004.06;;;17.97;63.92
72210;BME280;60113;48.762;12.302;2023-10-08T12:32:02;98017.72;;;18.02;63.99
72210;BME280;60113;48.762;12.302;2023-10-08T12:34:54;98031.28;;;18.09;63.83
72210;BME280;60113;48.762;12.302;2023-10-08T12:37:40;98037.56;;;18.18;64.23
72210;BME280;60113;48.762;12.302;2023-10-08T12:40:26;98038.75;;;18.33;64.36
72210;BME280;60113;48.762;12.302;2023-10-08T12:43:27;98028.84;;;18.54;64.44
72210;BME280;60113;48.762;12.302;2023-10-08T12:46:13;98030.84;;;18.70;64.25
72210;BME280;60113;48.762;12.302;2023-10-08T12:49:04;98037.94;;;18.79;63.87
72210;BME280;60113;48.762;12.302;2023-10-08T12:51:50;98039.69;;;18.89;64.09
72210;BME280;60113;48.762;12.302;2023-10-08T12:54:38;98037.97;;;18.97;63.88
72210;BME280;60113;48.762;12.302;2023-10-08T12:57:30;98029.97;;;18.97;63.41
72210;BME280;60113;48.762;12.302;2023-10-08T13:00:20;98034.53;;;18.87;63.61
72210;BME280;60113;48.762;12.302;2023-10-08T13:03:08;98030.28;;;18.94;63.85
72210;BME280;60113;48.762;12.302;2023-10-08T13:06:17;98035.91;;;18.91;63.08
72210;BME280;60113;48.762;12.302;2023-10-08T13:09:07;98016.59;;;18.89;63.75
72210;BME280;60113;48.762;12.302;2023-10-08T13:11:58;98008.84;;;18.96;64.28
72210;BME280;60113;48.762;12.302;2023-10-08T13:14:46;98006.22;;;19.04;64.21
72210;BME280;60113;48.762;12.302;2023-10-08T13:17:32;98002.75;;;19.04;64.13
72210;BME280;60113;48.762;12.302;2023-10-08T13:20:17;98008.78;;;19.24;64.42
72210;BME280;60113;48.762;12.302;2023-10-08T13:23:03;98004.47;;;19.49;64.24
72210;BME280;60113;48.762;12.302;2023-10-08T13:25:55;97997.78;;;19.72;63.86
72210;BME280;60113;48.762;12.302;2023-10-08T13:28:41;98007.59;;;19.98;64.89
72210;BME280;60113;48.762;12.302;2023-10-08T13:31:27;98013.19;;;20.13;62.92
72210;BME280;60113;48.762;12.302;2023-10-08T13:34:13;98003.69;;;20.19;63.55
72210;BME280;60113;48.762;12.302;2023-10-08T13:37:01;98010.41;;;19.96;62.91
72210;BME280;60113;48.762;12.302;2023-10-08T13:39:47;98015.59;;;19.71;64.48
72210;BME280;60113;48.762;12.302;2023-10-08T13:42:32;98028.22;;;19.43;64.33
72210;BME280;60113;48.762;12.302;2023-10-08T13:45:18;98016.53;;;19.17;64.41
72210;BME280;60113;48.762;12.302;2023-10-08T13:48:11;98021.84;;;18.99;63.54
72210;BME280;60113;48.762;12.302;2023-10-08T13:51:00;98021.81;;;18.81;64.15
72210;BME280;60113;48.762;12.302;2023-10-08T13:53:53;98020.19;;;18.70;64.55
72210;BME280;60113;48.762;12.302;2023-10-08T13:56:44;98011.84;;;18.65;64.81
72210;BME280;60113;48.762;12.302;2023-10-08T13:59:33;98013.81;;;18.62;65.37
72210;BME280;60113;48.762;12.302;2023-10-08T14:02:19;98020.59;;;18.75;64.83
72210;BME280;60113;48.762;12.302;2023-10-08T14:05:07;98019.75;;;18.74;64.77
72210;BME280;60113;48.762;12.302;2023-10-08T14:07:54;98013.97;;;18.61;64.40
72210;BME280;60113;48.762;12.302;2023-10-08T14:10:40;98020.09;;;18.43;64.83
72210;BME280;60113;48.762;12.302;2023-10-08T14:13:29;98021.81;;;18.34;64.37
72210;BME280;60113;48.762;12.302;2023-10-08T14:16:17;98021.22;;;18.41;64.62
72210;BME280;60113;48.762;12.302;2023-10-08T14:19:03;98016.31;;;18.46;65.00
72210;BME280;60113;48.762;12.302;2023-10-08T14:21:50;98004.75;;;18.55;64.74
72210;BME280;60113;48.762;12.302;2023-10-08T14:24:45;98015.81;;;18.79;64.86
72210;BME280;60113;48.762;12.302;2023-10-08T14:27:31;98013.56;;;19.02;64.50
72210;BME280;60113;48.762;12.302;2023-10-08T14:30:17;97999.47;;;19.28;64.45
72210;BME280;60113;48.762;12.302;2023-10-08T14:33:07;97998.72;;;19.63;64.43
72210;BME280;60113;48.762;12.302;2023-10-08T14:35:54;97999.28;;;19.74;63.15
72210;BME280;60113;48.762;12.302;2023-10-08T14:38:58;97989.97;;;19.79;64.17
72210;BME280;60113;48.762;12.302;2023-10-08T14:42:03;97990.66;;;19.54;64.36